Time;durP1;ratioP1;P1;durP2;ratioP2;P2;SDS_P1;SDS_P2;PMS_P1;PMS_P2;Temp;Humidity;BMP_temperature;BMP_pressure;BME280_temperature;BME280_humidity;BME280_pressure;Samples;Min_cycle;Max_cycle;Signal;HPM_P1;HPM_P2
2022/11/09 00:00:01;;;;;;;12.10;8.90;;;;;;;22.16;48.48;95501.06;4991705;28;20148;-63
2022/11/09 00:02:26;;;;;;;12.35;9.18;;;;;;;22.14;48.59;95492.66;5007582;28;20038;-61
2022/11/09 00:04:52;;;;;;;12.82;9.10;;;;;;;22.17;48.64;95507.28;4959467;28;20057;-59
2022/11/09 00:07:17;;;;;;;12.52;9.25;;;;;;;22.00;48.36;95503.72;5009542;28;20035;-61
2022/11/09 00:09:43;;;;;;;11.45;9.25;;;;;;;21.28;48.48;95379.56;4991859;28;20045;-61
2022/11/09 00:12:08;;;;;;;10.90;8.55;;;;;;;22.13;48.79;95507.47;5004641;28;20927;-61
2022/11/09 00:14:34;;;;;;;11.38;9.13;;;;;;;22.13;48.31;95502.03;5005492;28;20052;-59
2022/11/09 00:17:00;;;;;;;11.70;9.07;;;;;;;21.62;48.71;95435.59;4988443;28;20053;-62
2022/11/09 00:19:25;;;;;;;10.98;8.60;;;;;;;21.87;48.46;95464.59;5010959;28;20087;-58
2022/11/09 00:21:50;;;;;;;12.73;9.45;;;;;;;22.13;48.56;95512.19;5009906;28;20132;-60
2022/11/09 00:24:16;;;;;;;11.98;9.30;;;;;;;20.04;48.41;95188.41;5011571;28;20053;-61
2022/11/09 00:26:41;;;;;;;11.77;9.10;;;;;;;22.12;48.59;95506.00;4994257;28;20049;-61
2022/11/09 00:29:07;;;;;;;10.75;8.57;;;;;;;22.11;48.28;95509.97;5013123;28;20038;-58
2022/11/09 00:31:32;;;;;;;11.18;8.63;;;;;;;22.10;48.37;95513.91;5014160;28;20036;-60
2022/11/09 00:33:58;;;;;;;11.10;8.52;;;;;;;22.11;48.29;95522.81;4995506;28;20053;-61
2022/11/09 00:36:24;;;;;;;11.40;9.13;;;;;;;22.04;48.61;95502.25;5008801;28;20651;-59
2022/11/09 00:38:55;;;;;;;12.27;8.88;;;;;;;22.10;48.45;95508.47;4994568;28;20045;-59
2022/11/09 00:41:20;;;;;;;12.20;8.75;;;;;;;21.83;48.40;95469.53;4978036;28;20048;-59
2022/11/09 00:43:46;;;;;;;10.80;8.50;;;;;;;22.09;48.65;95507.00;5013342;28;20456;-62
2022/11/09 00:46:12;;;;;;;10.93;9.00;;;;;;;22.10;48.36;95535.66;4984463;28;20527;-61
2022/11/09 00:48:37;;;;;;;12.20;8.90;;;;;;;22.08;48.63;95504.75;5013242;28;20510;-59
2022/11/09 00:51:03;;;;;;;10.98;8.65;;;;;;;22.08;48.50;95504.75;4995476;28;20095;-59
2022/11/09 00:53:28;;;;;;;11.00;8.63;;;;;;;22.06;48.44;95502.53;5010968;28;20483;-59
2022/11/09 00:55:58;;;;;;;11.40;9.13;;;;;;;22.06;48.69;95507.97;5013043;28;20146;-62
2022/11/09 00:58:24;;;;;;;12.15;9.32;;;;;;;22.05;48.33;95497.56;5013612;28;20068;-60
2022/11/09 01:00:50;;;;;;;11.02;8.43;;;;;;;22.07;48.47;95495.84;5014208;28;20064;-59
2022/11/09 01:03:15;;;;;;;11.40;8.90;;;;;;;21.16;48.64;95355.56;4995050;28;20049;-61
2022/11/09 01:05:41;;;;;;;9.90;8.02;;;;;;;21.82;48.69;95487.06;5013269;28;20182;-60
2022/11/09 01:08:06;;;;;;;11.00;8.73;;;;;;;21.82;48.41;95460.63;4994889;28;20064;-61
2022/11/09 01:10:32;;;;;;;11.00;8.75;;;;;;;22.04;48.51;95499.53;4976791;28;20468;-58
2022/11/09 01:12:57;;;;;;;11.43;8.95;;;;;;;22.03;48.54;95503.50;5012577;28;20068;-61
2022/11/09 01:15:23;;;;;;;10.40;8.82;;;;;;;21.70;48.51;95447.47;5012926;28;20045;-58
2022/11/09 01:17:48;;;;;;;11.07;9.20;;;;;;;19.25;48.17;95085.81;4994443;28;20515;-60
2022/11/09 01:20:15;;;;;;;11.10;8.50;;;;;;;21.99;48.49;95492.09;5013655;28;20044;-58
2022/11/09 01:22:40;;;;;;;10.48;8.40;;;;;;;22.00;48.60;95499.03;5012712;28;20148;-58
2022/11/09 01:25:06;;;;;;;10.75;8.90;;;;;;;21.92;48.49;95487.13;4979204;28;20452;-62
2022/11/09 01:27:32;;;;;;;11.73;8.85;;;;;;;21.92;48.61;95481.69;5011369;28;20511;-61
2022/11/09 01:29:57;;;;;;;10.73;8.93;;;;;;;21.89;48.42;95483.91;5010480;28;20033;-60
2022/11/09 01:32:23;;;;;;;11.75;9.13;;;;;;;20.85;48.45;95328.50;4986692;28;20091;-61
2022/11/09 01:34:48;;;;;;;11.35;9.15;;;;;;;19.79;48.39;95176.81;4994855;28;20422;-59
2022/11/09 01:37:13;;;;;;;12.10;9.20;;;;;;;21.98;48.96;95506.91;5008428;28;20545;-62
2022/11/09 01:39:39;;;;;;;11.90;9.07;;;;;;;21.95;48.70;95497.03;5009036;28;20453;-61
2022/11/09 01:42:04;;;;;;;10.98;8.48;;;;;;;21.76;48.36;95456.41;5011200;28;20580;-59
2022/11/09 01:44:30;;;;;;;10.70;8.80;;;;;;;20.58;48.54;95303.84;5013189;28;20398;-61
2022/11/09 01:47:24;;;;;;;10.98;8.70;;;;;;;21.93;48.88;95488.63;5004367;28;20037;-58
2022/11/09 01:49:55;;;;;;;10.88;8.55;;;;;;;21.93;48.37;95488.63;4998583;28;20174;-61
2022/11/09 01:52:35;;;;;;;11.40;8.55;;;;;;;21.92;48.30;95496.53;4990848;28;20030;-60
2022/11/09 01:55:11;;;;;;;10.85;8.77;;;;;;;21.86;48.68;95476.72;5012614;28;20844;-59
2022/11/09 01:57:43;;;;;;;10.98;8.68;;;;;;;21.86;48.96;95490.31;5010785;28;20033;-60
2022/11/09 02:00:11;;;;;;;10.95;8.70;;;;;;;21.90;48.85;95488.09;5012403;28;20045;-61
2022/11/09 02:02:37;;;;;;;10.98;7.85;;;;;;;21.68;48.65;95449.97;5012227;28;20065;-59
2022/11/09 02:05:06;;;;;;;11.35;8.60;;;;;;;21.35;48.20;95406.28;4978944;28;20052;-62
2022/11/09 02:07:31;;;;;;;10.27;8.40;;;;;;;21.90;48.54;95493.53;4994928;28;20033;-60
2022/11/09 02:10:02;;;;;;;10.95;8.98;;;;;;;21.90;48.62;95493.53;4991349;28;20478;-62
2022/11/09 02:12:28;;;;;;;10.05;8.80;;;;;;;21.04;48.52;95362.88;5008005;28;20060;-59
2022/11/09 02:14:54;;;;;;;10.27;8.15;;;;;;;21.76;48.54;95494.47;4992214;28;20048;-60
2022/11/09 02:17:19;;;;;;;10.82;8.35;;;;;;;21.88;48.67;95512.31;5007515;28;20049;-60
2022/11/09 02:19:45;;;;;;;11.52;9.00;;;;;;;21.87;48.64;95494.50;5011949;28;20553;-61
2022/11/09 02:22:10;;;;;;;11.25;9.38;;;;;;;21.89;48.69;95494.78;5012674;28;20044;-58
2022/11/09 02:24:36;;;;;;;10.07;8.48;;;;;;;21.88;48.74;95490.56;5011880;28;20498;-62
2022/11/09 02:27:01;;;;;;;9.90;8.00;;;;;;;21.87;48.65;95494.50;5005527;28;20462;-60
2022/11/09 02:29:47;;;;;;;10.23;8.60;;;;;;;21.81;48.62;95491.03;5008055;28;20592;-60
2022/11/09 02:32:21;;;;;;;10.15;7.78;;;;;;;21.64;48.61;95469.22;4989755;28;20068;-58
2022/11/09 02:34:47;;;;;;;10.70;8.70;;;;;;;21.86;48.72;95498.47;4991662;28;20595;-62
2022/11/09 02:37:12;;;;;;;11.15;8.93;;;;;;;21.86;48.66;95498.47;5006500;28;20699;-60
2022/11/09 02:39:38;;;;;;;11.27;8.52;;;;;;;21.57;48.68;95455.34;5010883;28;20208;-62
2022/11/09 02:42:13;;;;;;;10.63;8.43;;;;;;;21.84;48.63;95500.91;5010366;28;20049;-61
2022/11/09 02:44:39;;;;;;;11.13;8.82;;;;;;;21.84;48.48;95501.69;4976127;28;20509;-61
2022/11/09 02:47:05;;;;;;;10.60;8.75;;;;;;;21.86;48.50;95503.91;4983564;28;20053;-61
2022/11/09 02:49:30;;;;;;;11.05;8.50;;;;;;;21.84;48.68;95498.19;4990688;28;20114;-58
2022/11/09 02:51:56;;;;;;;10.85;8.63;;;;;;;20.63;48.56;95314.03;4990375;28;20189;-62
2022/11/09 02:54:21;;;;;;;11.68;9.45;;;;;;;21.84;48.56;95498.19;5009983;28;20045;-61
2022/11/09 02:56:46;;;;;;;11.60;8.95;;;;;;;21.84;48.58;95495.47;4992295;28;20076;-62
2022/11/09 02:59:12;;;;;;;10.25;8.30;;;;;;;21.79;48.77;95488.78;5010327;28;20061;-61
2022/11/09 03:01:37;;;;;;;11.55;9.45;;;;;;;20.89;48.58;95368.97;5006539;28;20025;-62
2022/11/09 03:04:03;;;;;;;10.95;8.57;;;;;;;21.81;48.76;95501.88;5008684;28;20041;-60
2022/11/09 03:06:35;;;;;;;10.65;8.23;;;;;;;21.78;48.82;95497.44;5007173;28;20187;-61
2022/11/09 03:09:05;;;;;;;10.07;7.80;;;;;;;21.34;48.63;95442.81;5009492;28;21023;-58
2022/11/09 03:11:30;;;;;;;;;;;;;;;21.78;48.61;95502.88;4986986;28;20042;-57
2022/11/09 03:13:55;;;;;;;11.30;9.23;;;;;;;21.77;48.85;95501.41;5008426;28;19913;-58
2022/11/09 03:16:21;;;;;;;11.48;9.25;;;;;;;21.77;48.66;95498.69;5010812;28;20030;-60
2022/11/09 03:18:46;;;;;;;10.63;8.68;;;;;;;21.75;48.77;95531.03;4987913;28;20045;-60
2022/11/09 03:21:12;;;;;;;11.20;8.73;;;;;;;21.63;48.76;95480.56;5009015;28;20433;-59
2022/11/09 03:23:37;;;;;;;11.50;9.07;;;;;;;21.76;48.77;95499.91;5009277;28;20877;-59
2022/11/09 03:26:03;;;;;;;10.73;8.20;;;;;;;21.76;48.55;95499.91;5009326;28;20033;-60
2022/11/09 03:28:28;;;;;;;11.35;8.85;;;;;;;21.65;48.80;95478.09;4977336;28;20177;-61
2022/11/09 03:30:54;;;;;;;10.95;8.30;;;;;;;21.61;48.70;95472.16;4992879;28;20049;-61
2022/11/09 03:33:19;;;;;;;10.40;8.32;;;;;;;21.74;48.71;95513.25;5008269;28;20341;-59
2022/11/09 03:35:45;;;;;;;9.27;7.90;;;;;;;21.60;48.71;95481.53;5010768;28;20588;-61
2022/11/09 03:38:10;;;;;;;9.27;7.95;;;;;;;21.72;48.60;95510.25;4992650;28;20781;-57
2022/11/09 03:40:36;;;;;;;10.07;8.45;;;;;;;21.64;48.62;95498.34;4991481;28;20029;-61
2022/11/09 03:43:01;;;;;;;10.55;8.25;;;;;;;20.69;48.62;95372.53;5000872;28;20041;-61
2022/11/09 03:45:27;;;;;;;10.40;8.15;;;;;;;21.65;48.77;95508.00;5015368;28;20504;-62
2022/11/09 03:47:55;;;;;;;10.32;8.75;;;;;;;21.67;48.75;95519.13;5020610;28;20522;-60
2022/11/09 03:50:21;;;;;;;11.07;8.93;;;;;;;21.69;48.99;95506.53;5010952;28;20124;-59
2022/11/09 03:52:46;;;;;;;10.25;8.35;;;;;;;21.68;48.64;95515.19;4994725;28;20108;-59
2022/11/09 03:55:13;;;;;;;10.30;8.57;;;;;;;21.63;48.48;95518.63;5007375;28;20487;-58
2022/11/09 03:57:38;;;;;;;10.85;8.57;;;;;;;21.68;48.72;95515.19;5008827;28;20131;-61
2022/11/09 04:00:05;;;;;;;10.50;8.27;;;;;;;21.66;48.68;95517.66;4992467;28;20045;-62
2022/11/09 04:02:30;;;;;;;11.40;8.90;;;;;;;21.12;48.71;95436.50;4989745;28;20034;-58
2022/11/09 04:04:56;;;;;;;10.85;8.45;;;;;;;20.72;48.70;95376.28;5007186;28;20496;-62
2022/11/09 04:07:21;;;;;;;10.40;8.32;;;;;;;21.66;49.01;95536.69;5006580;28;20115;-59
2022/11/09 04:09:47;;;;;;;9.48;7.97;;;;;;;21.64;48.73;95514.66;4992654;28;20041;-60
2022/11/09 04:12:12;;;;;;;9.88;8.32;;;;;;;21.65;48.53;95516.16;5008552;28;20477;-59
2022/11/09 04:14:38;;;;;;;10.27;8.25;;;;;;;21.44;48.66;95484.88;5007553;28;20055;-61
2022/11/09 04:17:03;;;;;;;10.13;8.27;;;;;;;21.59;48.45;95512.66;4987784;28;20046;-58
2022/11/09 04:19:28;;;;;;;10.98;8.52;;;;;;;21.64;48.72;95509.22;5008324;28;20044;-60
2022/11/09 04:21:54;;;;;;;11.20;8.88;;;;;;;20.80;48.63;95390.88;5004482;28;20037;-62
2022/11/09 04:24:19;;;;;;;10.27;8.75;;;;;;;21.61;48.76;95510.19;5006833;28;20038;-61
2022/11/09 04:26:46;;;;;;;10.15;8.88;;;;;;;21.58;48.82;95508.44;5009115;28;20099;-62
2022/11/09 04:29:12;;;;;;;10.85;9.27;;;;;;;20.51;48.60;95345.00;5009612;28;20057;-61
2022/11/09 04:31:37;;;;;;;9.40;8.25;;;;;;;21.63;48.68;95515.91;5010128;28;20025;-59
2022/11/09 04:34:02;;;;;;;10.45;8.45;;;;;;;21.42;48.80;95495.50;4990189;28;20758;-62
2022/11/09 04:36:28;;;;;;;10.35;8.05;;;;;;;21.61;48.72;95521.06;4988930;28;20409;-59
2022/11/09 04:38:53;;;;;;;10.07;7.90;;;;;;;21.32;48.73;95472.44;4991069;28;20405;-61
2022/11/09 04:41:19;;;;;;;10.77;8.43;;;;;;;21.59;48.76;95512.66;5009282;28;20053;-60
2022/11/09 04:43:44;;;;;;;12.02;8.52;;;;;;;21.59;48.71;95513.41;4968162;28;20721;-60
2022/11/09 04:46:10;;;;;;;9.43;8.13;;;;;;;21.58;48.64;95511.16;4973546;28;20034;-61
2022/11/09 04:48:35;;;;;;;10.35;8.60;;;;;;;21.58;48.59;95516.59;4964782;28;20128;-60
2022/11/09 04:51:02;;;;;;;11.10;8.90;;;;;;;21.59;48.75;95513.41;4969260;28;20388;-60
2022/11/09 04:53:27;;;;;;;9.60;8.05;;;;;;;21.59;48.76;95518.81;4970084;28;20050;-59
2022/11/09 04:55:53;;;;;;;10.60;8.60;;;;;;;21.58;48.94;95527.47;4961462;28;20032;-61
2022/11/09 04:58:18;;;;;;;10.43;8.38;;;;;;;21.37;48.80;95490.75;4973824;28;20399;-59
2022/11/09 05:00:44;;;;;;;9.90;8.27;;;;;;;21.37;48.55;95485.31;4969301;28;20034;-60
2022/11/09 05:03:09;;;;;;;10.38;8.65;;;;;;;21.41;48.48;95496.72;4963636;28;20046;-61
2022/11/09 05:05:35;;;;;;;9.90;7.80;;;;;;;21.56;48.80;95525.22;4972340;28;20858;-60
2022/11/09 05:08:01;;;;;;;10.30;8.50;;;;;;;20.94;48.66;95441.56;4973059;28;20051;-59
2022/11/09 05:10:26;;;;;;;10.35;8.48;;;;;;;21.57;48.80;95531.44;4974627;28;20030;-60
2022/11/09 05:13:01;;;;;;;9.63;8.40;;;;;;;21.43;48.57;95511.31;4982795;28;20055;-60
2022/11/09 05:15:26;;;;;;;10.02;8.18;;;;;;;20.41;48.61;95357.25;4966035;28;20053;-60
2022/11/09 05:17:52;;;;;;;9.82;8.05;;;;;;;21.56;48.60;95536.09;4973728;28;20038;-61
2022/11/09 05:20:17;;;;;;;9.43;8.13;;;;;;;21.56;48.49;95529.94;4972094;28;20081;-60
2022/11/09 05:25:27;;;;;;;10.38;8.30;;;;;;;20.66;48.49;95410.72;4974615;28;20111;-61
2022/11/09 05:27:52;;;;;;;9.05;7.68;;;;;;;21.56;48.73;95540.81;4969668;28;20038;-60
2022/11/09 05:30:18;;;;;;;9.38;8.05;;;;;;;21.36;48.74;95511.00;4972272;28;20058;-60
2022/11/09 05:32:43;;;;;;;10.85;8.35;;;;;;;21.26;48.62;95496.09;4973803;28;20078;-61
2022/11/09 05:35:08;;;;;;;9.98;8.27;;;;;;;21.56;48.67;95551.69;4972393;28;20758;-61
2022/11/09 05:37:34;;;;;;;9.43;8.00;;;;;;;21.56;48.58;95546.97;4973535;28;20042;-62
2022/11/09 05:39:59;;;;;;;11.05;8.68;;;;;;;21.28;48.59;95504.50;4984250;28;20042;-61
2022/11/09 05:42:25;;;;;;;9.73;8.30;;;;;;;21.56;48.58;95546.25;4970746;28;20055;-62
2022/11/09 05:44:50;;;;;;;10.50;8.90;;;;;;;21.56;48.53;95552.41;4971602;28;20180;-59
2022/11/09 05:47:17;;;;;;;9.65;7.93;;;;;;;21.56;48.45;95557.84;4975994;28;20050;-61
2022/11/09 05:49:43;;;;;;;9.85;8.15;;;;;;;21.23;48.42;95502.50;4980426;28;20037;-61
2022/11/09 05:52:08;;;;;;;10.57;8.80;;;;;;;21.57;48.53;95570.22;4976142;28;20030;-61
2022/11/09 05:54:34;;;;;;;9.80;8.50;;;;;;;21.59;48.60;95561.56;4982001;28;20057;-61
2022/11/09 05:57:00;;;;;;;9.18;7.93;;;;;;;21.63;48.29;95595.44;4970033;28;20124;-58
2022/11/09 05:59:26;;;;;;;9.57;7.47;;;;;;;21.56;48.02;95535.38;4952124;28;20057;-63
2022/11/09 06:01:52;;;;;;;9.90;8.07;;;;;;;20.99;48.07;95433.47;4953269;28;20053;-62
2022/11/09 06:04:17;;;;;;;10.57;8.55;;;;;;;22.01;48.01;95573.94;4961587;28;20656;-60
2022/11/09 06:06:43;;;;;;;10.15;8.10;;;;;;;22.02;47.96;95567.28;4968573;28;20385;-63
2022/11/09 06:09:08;;;;;;;9.70;7.55;;;;;;;22.19;47.83;95608.16;4970242;28;20050;-60
2022/11/09 06:11:34;;;;;;;9.80;7.55;;;;;;;22.02;47.30;95544.78;4971634;28;20038;-61
2022/11/09 06:13:59;;;;;;;9.00;7.28;;;;;;;22.39;47.32;95573.44;4967544;28;20396;-59
2022/11/09 06:16:25;;;;;;;9.85;7.53;;;;;;;22.49;47.05;95582.84;4964688;28;20511;-60
2022/11/09 06:18:50;;;;;;;9.65;8.07;;;;;;;22.57;46.92;95578.41;4972131;28;20826;-59
2022/11/09 06:21:16;;;;;;;8.18;6.72;;;;;;;22.51;46.82;95581.13;4962897;28;20054;-61
2022/11/09 06:23:41;;;;;;;9.38;7.50;;;;;;;22.61;47.48;95573.47;4981482;28;20139;-60
2022/11/09 06:26:08;;;;;;;9.70;7.57;;;;;;;22.87;46.91;95579.50;4967549;28;20054;-58
2022/11/09 06:28:34;;;;;;;9.10;6.72;;;;;;;22.87;49.83;95579.50;4972598;28;20125;-61
2022/11/09 06:31:00;;;;;;;8.43;6.97;;;;;;;23.05;48.75;95583.28;4969819;28;20125;-62
2022/11/09 06:33:26;;;;;;;7.97;6.82;;;;;;;23.12;49.34;95580.06;4946550;28;20516;-63
2022/11/09 06:35:52;;;;;;;8.93;6.85;;;;;;;22.89;48.31;95548.53;4949556;28;20041;-61
2022/11/09 06:38:17;;;;;;;9.88;6.85;;;;;;;23.12;48.55;95590.97;4968188;28;20144;-61
2022/11/09 06:40:43;;;;;;;8.77;6.95;;;;;;;23.24;48.52;95587.00;4980181;28;20018;-65
2022/11/09 06:43:08;;;;;;;8.38;6.93;;;;;;;22.90;47.35;95506.47;4999876;28;20166;-66
2022/11/09 06:45:33;;;;;;;8.45;6.50;;;;;;;23.21;48.29;95577.09;4994888;28;20780;-62
2022/11/09 06:48:02;;;;;;;9.85;7.47;;;;;;;23.45;46.95;95601.88;5000912;28;20523;-62
2022/11/09 06:50:29;;;;;;;7.55;6.43;;;;;;;23.27;46.33;95539.69;5009235;28;20029;-63
2022/11/09 06:53:03;;;;;;;9.00;7.00;;;;;;;23.55;46.19;95584.78;5004366;28;20037;-63
2022/11/09 06:55:29;;;;;;;8.07;6.78;;;;;;;23.51;45.93;95583.53;5001828;28;20037;-63
2022/11/09 06:57:54;;;;;;;8.35;6.78;;;;;;;23.62;45.68;95594.47;4999776;28;20037;-60
2022/11/09 07:00:20;;;;;;;8.25;6.53;;;;;;;23.54;45.86;95574.38;5007777;28;20674;-62
2022/11/09 07:02:46;;;;;;;9.43;6.82;;;;;;;23.72;45.57;95606.63;5008428;28;20060;-61
2022/11/09 07:05:12;;;;;;;8.45;6.90;;;;;;;23.82;45.33;95583.31;5000180;28;20049;-59
2022/11/09 07:07:37;;;;;;;7.57;6.57;;;;;;;22.94;46.03;95451.78;4990552;28;20030;-59
2022/11/09 07:10:03;;;;;;;8.25;6.70;;;;;;;23.88;45.34;95565.69;5005498;28;20049;-62
2022/11/09 07:12:28;;;;;;;8.35;6.90;;;;;;;24.23;44.73;95577.50;5008680;28;20520;-63
2022/11/09 07:14:54;;;;;;;8.35;7.10;;;;;;;24.04;44.69;95549.28;5008166;28;20507;-63
2022/11/09 07:17:19;;;;;;;9.20;7.10;;;;;;;23.99;45.04;95574.59;5008341;28;20029;-60
2022/11/09 07:19:45;;;;;;;8.57;6.50;;;;;;;24.05;45.03;95572.59;5009118;28;20172;-64
2022/11/09 07:22:11;;;;;;;8.65;6.80;;;;;;;24.27;44.15;95577.97;5008323;28;20033;-60
2022/11/09 07:24:36;;;;;;;8.43;6.70;;;;;;;24.30;44.10;95566.06;5006191;28;20144;-63
2022/11/09 07:27:02;;;;;;;8.63;6.60;;;;;;;24.39;43.78;95590.38;5001267;28;21131;-65
2022/11/09 07:29:27;;;;;;;10.35;6.82;;;;;;;22.59;43.63;95309.94;4991531;28;20099;-61
2022/11/09 07:31:52;;;;;;;8.27;6.50;;;;;;;24.29;44.03;95570.06;5000333;28;20404;-62
2022/11/09 07:34:18;;;;;;;9.13;6.15;;;;;;;24.13;44.16;95579.03;4993256;28;21216;-64
2022/11/09 07:36:43;;;;;;;7.70;6.40;;;;;;;24.25;43.85;95566.09;4993447;28;20037;-62
2022/11/09 07:39:09;;;;;;;8.60;6.80;;;;;;;24.34;43.63;95566.56;4992857;28;20041;-65
2022/11/09 07:41:34;;;;;;;8.07;6.63;;;;;;;24.31;44.13;95573.00;5010660;28;20405;-61
2022/11/09 07:44:00;;;;;;;7.47;6.53;;;;;;;24.19;43.56;95549.00;5004585;28;20046;-65
2022/11/09 07:46:25;;;;;;;9.93;6.57;;;;;;;24.31;44.13;95570.28;4991275;28;20037;-65
2022/11/09 07:48:51;;;;;;;8.18;6.35;;;;;;;24.07;44.57;95558.47;5007765;28;20563;-62
2022/11/09 07:51:16;;;;;;;8.55;6.30;;;;;;;23.90;44.81;95566.69;5011735;28;20883;-65
2022/11/09 07:53:41;;;;;;;8.70;6.50;;;;;;;23.94;44.74;95583.53;5006096;28;20048;-61
2022/11/09 07:56:07;;;;;;;9.27;6.18;;;;;;;23.75;44.84;95542.91;5003902;28;20432;-60
2022/11/09 07:58:34;;;;;;;8.25;6.43;;;;;;;23.89;44.52;95576.09;4969675;28;20029;-61
2022/11/09 08:01:00;;;;;;;9.15;6.53;;;;;;;23.84;44.72;95578.09;5003802;28;20049;-63
2022/11/09 08:03:25;;;;;;;9.82;7.03;;;;;;;23.78;44.93;95574.63;5011793;28;20520;-60
2022/11/09 08:05:51;;;;;;;9.50;6.45;;;;;;;23.74;45.33;95569.44;5004296;28;20049;-64
2022/11/09 08:08:16;;;;;;;9.82;6.57;;;;;;;23.67;45.43;95569.19;5002246;28;20624;-63
2022/11/09 08:10:43;;;;;;;8.13;6.43;;;;;;;23.73;44.83;95575.38;5004227;28;20029;-65
2022/11/09 08:13:13;;;;;;;8.38;6.55;;;;;;;23.73;45.43;95572.66;5005450;28;20053;-63
2022/11/09 08:15:39;;;;;;;7.50;6.30;;;;;;;23.76;45.05;95571.66;4990436;28;20122;-66
2022/11/09 08:18:06;;;;;;;8.00;6.43;;;;;;;23.55;45.58;95556.78;4990748;28;20649;-62
2022/11/09 08:20:32;;;;;;;8.18;6.60;;;;;;;23.63;45.01;95585.03;5008693;28;20406;-64
2022/11/09 08:22:58;;;;;;;8.43;6.07;;;;;;;23.71;45.21;95564.25;5009708;28;20033;-66
2022/11/09 08:25:23;;;;;;;7.95;6.43;;;;;;;23.84;44.57;95578.84;5010735;28;20529;-62
2022/11/09 08:27:49;;;;;;;7.60;6.43;;;;;;;23.82;44.71;95566.94;4993983;28;20033;-63
2022/11/09 08:30:16;;;;;;;8.02;6.22;;;;;;;23.70;45.13;95573.66;4992272;28;20037;-64
2022/11/09 08:32:41;;;;;;;8.55;6.82;;;;;;;23.07;45.42;95512.69;4976323;28;21016;-65
2022/11/09 08:35:09;;;;;;;7.13;6.05;;;;;;;23.49;45.55;95578.59;4992864;28;20140;-64
2022/11/09 08:37:35;;;;;;;7.07;6.10;;;;;;;22.32;45.39;95382.69;4995081;28;20477;-65
2022/11/09 08:40:00;;;;;;;8.25;6.20;;;;;;;23.56;45.15;95569.19;4978892;28;20095;-59
2022/11/09 08:42:26;;;;;;;8.27;6.57;;;;;;;23.65;45.72;95566.22;5014501;28;20057;-63
2022/11/09 08:44:51;;;;;;;7.00;5.95;;;;;;;23.54;45.16;95558.78;5014359;28;20045;-60
2022/11/09 08:47:17;;;;;;;7.18;6.03;;;;;;;23.57;45.24;95573.38;5011058;28;20049;-63
2022/11/09 08:49:43;;;;;;;7.70;6.30;;;;;;;23.50;45.58;95568.44;5015656;28;20464;-62
2022/11/09 08:52:09;;;;;;;8.35;6.25;;;;;;;23.54;45.20;95577.09;4996566;28;20033;-67
2022/11/09 08:54:35;;;;;;;7.78;6.40;;;;;;;23.56;45.78;95569.91;5015186;28;20041;-66
2022/11/09 08:57:01;;;;;;;8.70;6.28;;;;;;;23.53;45.10;95575.63;5014482;28;20469;-60
2022/11/09 08:59:26;;;;;;;8.95;6.22;;;;;;;23.53;45.18;95576.38;5014685;28;20037;-65
2022/11/09 09:01:52;;;;;;;7.82;6.57;;;;;;;23.20;45.20;95521.13;5014767;28;20045;-63
2022/11/09 09:04:17;;;;;;;9.45;6.43;;;;;;;23.62;44.85;95572.66;5008712;28;20466;-62
2022/11/09 09:06:42;;;;;;;8.20;6.43;;;;;;;23.53;45.43;95570.19;5014628;28;20046;-63
2022/11/09 09:09:08;;;;;;;8.82;6.68;;;;;;;23.56;45.62;95574.63;5009416;28;20037;-64
2022/11/09 09:11:33;;;;;;;8.15;6.63;;;;;;;23.61;45.48;95576.59;4998277;28;20033;-68
2022/11/09 09:13:59;;;;;;;7.85;6.25;;;;;;;23.58;45.17;95594.69;5013855;28;20044;-63
2022/11/09 09:16:24;;;;;;;8.20;6.50;;;;;;;23.61;45.04;95571.16;5016640;28;20025;-66
2022/11/09 09:18:50;;;;;;;8.00;6.38;;;;;;;23.59;45.47;95566.19;5014241;28;20029;-63
2022/11/09 09:21:15;;;;;;;8.82;7.15;;;;;;;22.75;45.32;95433.66;4995739;28;20038;-66
2022/11/09 09:23:41;;;;;;;7.68;6.57;;;;;;;22.65;44.90;95440.63;5014060;28;20551;-61
2022/11/09 09:26:06;;;;;;;9.05;6.40;;;;;;;23.55;45.09;95559.50;4996886;28;20135;-63
2022/11/09 09:28:31;;;;;;;7.63;6.20;;;;;;;23.49;45.07;95531.50;4979800;28;20036;-61
2022/11/09 09:30:58;;;;;;;9.10;6.70;;;;;;;23.69;44.76;95550.34;5013703;28;20037;-65
2022/11/09 09:33:24;;;;;;;8.35;6.40;;;;;;;23.69;44.81;95547.63;4995982;28;20461;-64
2022/11/09 09:35:50;;;;;;;7.60;6.13;;;;;;;22.84;45.14;95425.25;5013864;28;20088;-64
2022/11/09 09:38:16;;;;;;;8.05;6.43;;;;;;;23.48;44.95;95524.56;4997307;28;20418;-58
2022/11/09 09:40:47;;;;;;;8.77;6.70;;;;;;;23.59;44.59;95527.28;4995814;28;20523;-61
2022/11/09 09:43:16;;;;;;;8.90;6.30;;;;;;;23.85;44.94;95580.31;4979664;28;20045;-60
2022/11/09 09:45:46;;;;;;;8.87;6.20;;;;;;;23.86;44.75;95549.81;4988606;28;20049;-60
2022/11/09 09:48:40;;;;;;;11.27;6.93;;;;;;;23.91;44.34;95540.13;4990320;28;20326;-60
2022/11/09 09:51:22;;;;;;;8.40;6.60;;;;;;;23.95;44.32;95535.91;5008260;28;20111;-63
2022/11/09 09:53:51;;;;;;;8.75;6.85;;;;;;;23.93;44.34;95532.94;4985921;28;20689;-59
2022/11/09 09:56:29;;;;;;;10.50;6.80;;;;;;;23.95;44.67;95535.19;4992272;28;20502;-62
2022/11/09 09:59:02;;;;;;;7.70;6.03;;;;;;;23.85;44.83;95516.84;4984877;28;20030;-61
2022/11/09 10:01:35;;;;;;;8.07;6.63;;;;;;;23.97;44.36;95530.69;5012016;28;20108;-61
2022/11/09 10:04:01;;;;;;;9.48;6.80;;;;;;;23.84;44.30;95496.25;4993855;28;20115;-60
2022/11/09 10:06:41;;;;;;;13.10;9.50;;;;;;;24.03;44.93;95520.50;5004141;28;20041;-61
2022/11/09 10:09:17;;;;;;;69.68;27.50;;;;;;;23.93;44.98;95522.03;5012184;28;20042;-63
2022/11/09 10:11:59;;;;;;;147.55;50.92;;;;;;;24.05;43.13;95539.88;5012817;28;20283;-61
2022/11/09 10:14:32;;;;;;;161.82;58.30;;;;;;;23.86;42.58;95522.53;4997057;28;20052;-62
2022/11/09 10:17:06;;;;;;;171.95;67.07;;;;;;;23.91;42.86;95513.59;4981565;28;20045;-61
2022/11/09 10:19:50;;;;;;;170.25;72.88;;;;;;;23.89;42.87;95505.19;5012585;28;20033;-62
2022/11/09 10:22:41;;;;;;;186.20;73.00;;;;;;;23.85;42.85;95495.03;5009900;28;20430;-60
2022/11/09 10:25:22;;;;;;;155.50;69.50;;;;;;;23.85;42.78;95497.75;4980138;28;20111;-65
2022/11/09 10:28:01;;;;;;;160.40;69.95;;;;;;;23.10;42.58;95359.16;4993720;28;20053;-63
2022/11/09 10:30:27;;;;;;;155.27;64.68;;;;;;;24.00;42.62;95505.13;4977459;28;20104;-65
2022/11/09 10:32:55;;;;;;;129.18;63.08;;;;;;;23.53;42.42;95442.06;4993488;28;20037;-64
2022/11/09 10:35:24;;;;;;;127.05;61.70;;;;;;;23.96;42.37;95499.22;4993743;28;20104;-59
2022/11/09 10:37:51;;;;;;;126.55;60.47;;;;;;;23.79;42.67;95499.75;5011911;28;20029;-64
2022/11/09 10:40:25;;;;;;;128.90;59.97;;;;;;;23.86;42.48;95506.19;4993203;28;20486;-64
2022/11/09 10:42:56;;;;;;;113.85;55.90;;;;;;;23.55;42.21;95458.63;5010941;28;20058;-63
2022/11/09 10:45:32;;;;;;;111.70;54.65;;;;;;;23.99;41.18;95487.28;4993372;28;20064;-62
2022/11/09 10:47:58;;;;;;;86.18;46.60;;;;;;;24.36;40.17;95493.09;5011144;28;20466;-60
2022/11/09 10:50:23;;;;;;;87.05;44.50;;;;;;;24.28;40.29;95486.66;4993077;28;20172;-64
2022/11/09 10:52:49;;;;;;;68.95;37.45;;;;;;;24.10;40.14;95489.97;5011002;28;20029;-62
2022/11/09 10:55:25;;;;;;;57.78;34.25;;;;;;;24.27;38.65;95457.88;5011482;28;20029;-64
2022/11/09 10:58:19;;;;;;;58.17;33.38;;;;;;;24.24;39.00;95482.72;4993886;28;20966;-64
2022/11/09 11:00:55;;;;;;;51.95;30.70;;;;;;;24.81;37.74;95477.94;4995298;28;20040;-63
2022/11/09 11:03:23;;;;;;;48.40;28.83;;;;;;;24.73;37.66;95471.56;4976979;28;20073;-60
2022/11/09 11:05:59;;;;;;;44.60;27.88;;;;;;;24.53;38.15;95458.28;5009654;28;20033;-62
2022/11/09 11:08:27;;;;;;;45.08;27.60;;;;;;;24.76;36.98;95465.81;4976919;28;20056;-62
2022/11/09 11:11:07;;;;;;;41.33;26.25;;;;;;;24.91;37.02;95466.94;4990809;28;20053;-59
2022/11/09 11:13:33;;;;;;;42.53;26.65;;;;;;;25.20;36.40;95466.25;4964733;28;20034;-60
2022/11/09 11:15:58;;;;;;;35.80;23.15;;;;;;;24.99;36.87;95456.97;5010049;28;20104;-62
2022/11/09 11:18:24;;;;;;;35.65;22.35;;;;;;;24.79;36.41;95409.44;5009195;28;20053;-60
2022/11/09 11:21:16;;;;;;;34.20;21.98;;;;;;;25.00;36.14;95458.44;4974692;28;20041;-65
2022/11/09 11:23:42;;;;;;;32.63;20.65;;;;;;;24.16;35.79;95294.22;4993603;28;20033;-62
2022/11/09 11:26:22;;;;;;;34.15;21.65;;;;;;;22.84;35.45;95090.34;5009133;28;20041;-63
2022/11/09 11:28:51;;;;;;;32.60;22.08;;;;;;;24.75;35.11;95310.63;5009536;28;20533;-65